createdAt,value
2023-02-09T00:01:35.021Z,101368.13
2023-02-09T00:04:02.697Z,101370.69
2023-02-09T00:06:30.312Z,101363.84
2023-02-09T00:08:58.565Z,101360.28
2023-02-09T00:11:49.214Z,101351.84
2023-02-09T00:14:20.282Z,101346.75
2023-02-09T00:16:48.794Z,101339.06
2023-02-09T00:19:15.755Z,101339.06
2023-02-09T00:21:42.377Z,101333.97
2023-02-09T00:24:11.380Z,101341.63
2023-02-09T00:26:38.255Z,101340.81
2023-02-09T00:29:05.418Z,101333.97
2023-02-09T00:31:32.072Z,101339.94
2023-02-09T00:33:59.000Z,101334.81
2023-02-09T00:36:25.570Z,101330.59
2023-02-09T00:38:52.214Z,101340.91
2023-02-09T00:41:39.156Z,101328.22
2023-02-09T00:44:05.838Z,101337.63
2023-02-09T00:46:32.422Z,101341.13
2023-02-09T00:48:58.989Z,101334.25
2023-02-09T00:51:25.529Z,101320.66
2023-02-09T00:53:52.072Z,101310.44
2023-02-09T00:56:18.648Z,101319.91
2023-02-09T00:58:45.241Z,101315.72
2023-02-09T01:01:15.775Z,101315.72
2023-02-09T01:03:43.065Z,101312.06
2023-02-09T01:06:10.373Z,101312.22
2023-02-09T01:08:38.626Z,101311.25
2023-02-09T01:11:10.112Z,101311.34
2023-02-09T01:13:37.110Z,101313.97
2023-02-09T01:16:08.434Z,101314.13
2023-02-09T01:18:35.019Z,101314.13
2023-02-09T01:21:01.659Z,101317.47
2023-02-09T01:23:28.283Z,101327.88
2023-02-09T01:26:12.147Z,101333.88
2023-02-09T01:28:39.155Z,101335.69
2023-02-09T01:31:07.416Z,101335.69
2023-02-09T01:33:34.067Z,101331.56
2023-02-09T01:36:04.795Z,101329.00
2023-02-09T01:38:31.338Z,101328.19
2023-02-09T01:40:57.952Z,101317.97
2023-02-09T01:43:24.526Z,101323.97
2023-02-09T01:45:54.859Z,101317.97
2023-02-09T01:48:30.443Z,101327.38
2023-02-09T01:51:01.011Z,101305.25
2023-02-09T01:53:27.774Z,101307.56
2023-02-09T01:56:02.325Z,101307.75
2023-02-09T01:58:29.251Z,101312.03
2023-02-09T02:00:55.858Z,101307.91
2023-02-09T02:03:25.706Z,101307.91
2023-02-09T02:05:56.913Z,101299.25
2023-02-09T02:11:01.271Z,101301.97
2023-02-09T02:13:27.871Z,101305.44
2023-02-09T02:16:34.216Z,101308.75
2023-02-09T02:19:38.086Z,101302.06
2023-02-09T02:22:44.434Z,101301.25
2023-02-09T02:31:22.353Z,101293.16
2023-02-09T02:36:38.839Z,101302.97
2023-02-09T02:39:25.273Z,101304.16
2023-02-09T02:44:31.273Z,101306.81
2023-02-09T02:47:03.384Z,101307.66
2023-02-09T02:49:39.658Z,101299.22
2023-02-09T02:52:09.483Z,101300.97
2023-02-09T02:54:40.369Z,101301.78
2023-02-09T02:57:13.769Z,101297.50
2023-02-09T03:00:02.206Z,101304.31
2023-02-09T03:02:34.190Z,101302.72
2023-02-09T03:05:03.528Z,101299.38
2023-02-09T03:07:30.123Z,101294.25
2023-02-09T03:09:57.443Z,101294.25
2023-02-09T03:15:28.909Z,101313.91
2023-02-09T03:23:30.955Z,101323.50
2023-02-09T03:26:01.530Z,101315.91
2023-02-09T03:28:33.690Z,101313.25
2023-02-09T03:31:02.463Z,101310.69
2023-02-09T03:33:33.053Z,101314.13
2023-02-09T03:36:00.842Z,101324.16
2023-02-09T03:38:28.028Z,101328.63
2023-02-09T03:40:54.900Z,101333.88
2023-02-09T03:43:41.395Z,101322.03
2023-02-09T03:46:07.983Z,101325.56
2023-02-09T03:48:35.253Z,101324.81
2023-02-09T03:51:01.855Z,101324.09
2023-02-09T03:53:28.384Z,101331.78
2023-02-09T03:55:54.934Z,101328.47
2023-02-09T03:58:21.843Z,101329.44
2023-02-09T04:00:48.400Z,101342.25
2023-02-09T04:03:14.974Z,101338.06
2023-02-09T04:05:41.503Z,101326.97
2023-02-09T04:08:08.046Z,101333.19
2023-02-09T04:10:34.577Z,101338.47
2023-02-09T04:13:01.596Z,101343.75
2023-02-09T04:15:28.127Z,101348.13
2023-02-09T04:17:54.680Z,101350.88
2023-02-09T04:20:21.200Z,101353.59
2023-02-09T04:22:47.748Z,101369.19
2023-02-09T04:25:14.314Z,101370.94
2023-02-09T04:27:40.839Z,101377.13
2023-02-09T04:30:08.211Z,101371.19
2023-02-09T04:32:34.734Z,101376.44
2023-02-09T04:35:01.272Z,101385.06
2023-02-09T04:37:27.883Z,101389.53
2023-02-09T04:39:54.468Z,101406.81
2023-02-09T04:42:21.023Z,101406.97
2023-02-09T04:44:47.541Z,101408.88
2023-02-09T04:47:14.093Z,101409.84
2023-02-09T04:49:42.625Z,101415.91
2023-02-09T04:52:09.167Z,101422.81
2023-02-09T04:54:35.784Z,101430.56
2023-02-09T04:57:22.341Z,101441.66
2023-02-09T04:59:48.945Z,101447.69
2023-02-09T05:02:15.584Z,101450.31
2023-02-09T05:04:42.259Z,101457.19
2023-02-09T05:07:08.869Z,101453.81
2023-02-09T05:09:35.524Z,101451.34
2023-02-09T05:12:02.095Z,101456.47
2023-02-09T05:14:28.774Z,101457.34
2023-02-09T05:16:55.425Z,101464.22
2023-02-09T05:19:22.116Z,101479.75
2023-02-09T05:21:48.655Z,101478.13
2023-02-09T05:24:15.181Z,101474.78
2023-02-09T05:26:41.754Z,101474.91
2023-02-09T05:29:08.345Z,101483.56
2023-02-09T05:31:35.090Z,101494.78
2023-02-09T05:34:01.877Z,101500.03
2023-02-09T05:36:28.833Z,101494.13
2023-02-09T05:38:55.365Z,101501.16
2023-02-09T05:41:41.824Z,101498.59
2023-02-09T05:44:08.735Z,101494.41
2023-02-09T05:46:35.293Z,101495.38
2023-02-09T05:49:02.048Z,101497.19
2023-02-09T05:51:28.599Z,101494.72
2023-02-09T05:53:56.346Z,101503.34
2023-02-09T05:56:23.007Z,101496.63
2023-02-09T05:58:49.568Z,101499.25
2023-02-09T06:01:16.292Z,101507.03
2023-02-09T06:03:42.902Z,101515.66
2023-02-09T06:06:09.466Z,101519.97
2023-02-09T06:08:36.063Z,101539.69
2023-02-09T06:11:04.087Z,101538.06
2023-02-09T06:13:30.609Z,101533.00
2023-02-09T06:15:57.285Z,101532.28
2023-02-09T06:18:23.907Z,101522.97
2023-02-09T06:20:50.456Z,101520.41
2023-02-09T06:23:16.996Z,101526.47
2023-02-09T06:25:43.548Z,101537.72
2023-02-09T06:28:10.135Z,101535.16
2023-02-09T06:30:36.874Z,101531.75
2023-02-09T06:33:03.560Z,101534.34
2023-02-09T06:35:30.108Z,101545.56
2023-02-09T06:37:58.129Z,101560.94
2023-02-09T06:40:24.825Z,101569.56
2023-02-09T06:42:51.376Z,101573.94
2023-02-09T06:45:18.002Z,101579.06
2023-02-09T06:47:45.867Z,101568.84
2023-02-09T06:50:14.157Z,101568.91
2023-02-09T06:52:40.980Z,101569.72
2023-02-09T06:55:08.274Z,101575.75
2023-02-09T06:57:35.512Z,101578.38
2023-02-09T07:00:03.273Z,101581.75
2023-02-09T07:02:29.849Z,101569.88
2023-02-09T07:04:57.696Z,101576.75
2023-02-09T07:07:25.577Z,101576.75
2023-02-09T07:09:52.196Z,101575.16
2023-02-09T07:12:18.725Z,101576.91
2023-02-09T07:14:45.865Z,101565.06
2023-02-09T07:17:12.465Z,101572.00
2023-02-09T07:19:38.978Z,101574.50
2023-02-09T07:22:05.536Z,101582.94
2023-02-09T07:24:32.081Z,101603.38
2023-02-09T07:26:58.620Z,101609.19
2023-02-09T07:29:25.202Z,101611.50
2023-02-09T07:31:51.889Z,101610.50
2023-02-09T07:34:18.514Z,101613.69
2023-02-09T07:36:47.940Z,101617.72
2023-02-09T07:39:14.802Z,101626.72
2023-02-09T07:41:41.423Z,101622.91
2023-02-09T07:44:09.488Z,101631.09
2023-02-09T07:46:36.255Z,101634.13
2023-02-09T07:49:03.053Z,101645.94
2023-02-09T07:51:29.791Z,101635.44
2023-02-09T07:53:58.390Z,101643.94
2023-02-09T07:56:26.441Z,101645.53
2023-02-09T07:58:54.101Z,101654.03
2023-02-09T08:01:21.519Z,101654.59
2023-02-09T08:03:49.847Z,101660.59
2023-02-09T08:08:55.967Z,101663.94
2023-02-09T08:11:29.295Z,101674.19
2023-02-09T08:13:58.077Z,101680.22
2023-02-09T08:16:28.483Z,101678.59
2023-02-09T08:18:57.599Z,101680.13
2023-02-09T08:21:25.268Z,101677.16
2023-02-09T08:23:55.726Z,101691.88
2023-02-09T08:26:22.237Z,101686.88
2023-02-09T08:28:49.350Z,101690.47
2023-02-09T08:31:19.009Z,101699.34
2023-02-09T08:33:48.603Z,101696.69
2023-02-09T08:36:16.803Z,101705.28
2023-02-09T08:38:44.665Z,101706.50
2023-02-09T08:41:13.391Z,101711.59
2023-02-09T08:43:40.496Z,101708.31
2023-02-09T08:46:09.594Z,101696.84
2023-02-09T08:48:38.274Z,101701.47
2023-02-09T08:51:06.796Z,101709.09
2023-02-09T08:53:33.510Z,101711.13
2023-02-09T08:56:00.286Z,101708.63
2023-02-09T08:58:27.760Z,101715.81
2023-02-09T09:00:57.272Z,101707.44
2023-02-09T09:03:27.898Z,101705.13
2023-02-09T09:06:00.245Z,101708.75
2023-02-09T09:08:27.680Z,101707.13
2023-02-09T09:10:54.334Z,101718.44
2023-02-09T09:13:21.370Z,101730.56
2023-02-09T09:15:48.339Z,101727.69
2023-02-09T09:18:15.168Z,101732.59
2023-02-09T09:20:42.528Z,101732.22
2023-02-09T09:23:10.539Z,101730.84
2023-02-09T09:25:39.679Z,101722.66
2023-02-09T09:28:07.497Z,101719.66
2023-02-09T09:30:34.195Z,101711.38
2023-02-09T09:33:01.652Z,101711.16
2023-02-09T09:35:28.642Z,101708.19
2023-02-09T09:37:57.440Z,101720.91
2023-02-09T09:40:28.630Z,101738.34
2023-02-09T09:42:59.413Z,101736.78
2023-02-09T09:45:29.714Z,101740.56
2023-02-09T09:47:57.002Z,101742.38
2023-02-09T09:50:28.147Z,101739.97
2023-02-09T09:53:01.022Z,101745.50
2023-02-09T09:55:31.539Z,101755.34
2023-02-09T09:58:03.239Z,101771.28
2023-02-09T10:00:45.591Z,101769.53
2023-02-09T10:03:15.897Z,101769.78
2023-02-09T10:05:44.265Z,101777.94
2023-02-09T10:08:37.267Z,101777.16
2023-02-09T10:11:09.978Z,101773.47
2023-02-09T10:13:44.350Z,101768.75
2023-02-09T10:16:34.430Z,101780.19
2023-02-09T10:19:04.145Z,101781.50
2023-02-09T10:21:34.220Z,101782.91
2023-02-09T10:26:39.221Z,101777.13
2023-02-09T10:31:59.972Z,101788.59
2023-02-09T10:34:33.395Z,101795.34
2023-02-09T10:37:22.792Z,101795.13
2023-02-09T10:39:58.758Z,101796.75
2023-02-09T10:42:32.811Z,101800.13
2023-02-09T10:45:12.232Z,101805.16
2023-02-09T10:47:38.873Z,101800.09
2023-02-09T10:50:18.020Z,101803.72
2023-02-09T10:52:56.308Z,101805.16
2023-02-09T10:55:37.088Z,101798.75
2023-02-09T10:58:22.103Z,101803.75
2023-02-09T11:00:53.956Z,101793.94
2023-02-09T11:03:25.867Z,101799.53
2023-02-09T11:06:16.253Z,101805.59
2023-02-09T11:08:50.958Z,101801.03
2023-02-09T11:13:53.915Z,101800.34
2023-02-09T11:25:48.366Z,101791.31
2023-02-09T11:28:53.730Z,101789.19
2023-02-09T11:37:20.239Z,101782.00
2023-02-09T11:39:57.521Z,101790.88
2023-02-09T11:42:44.529Z,101791.66
2023-02-09T11:53:45.667Z,101810.16
2023-02-09T11:56:15.127Z,101804.97
2023-02-09T12:04:39.889Z,101793.88
2023-02-09T12:07:46.057Z,101790.16
2023-02-09T12:10:36.310Z,101783.84
2023-02-09T12:13:42.635Z,101775.69
2023-02-09T12:16:17.454Z,101784.16
2023-02-09T12:18:45.530Z,101782.16
2023-02-09T12:21:12.808Z,101797.41
2023-02-09T12:23:42.535Z,101777.47
2023-02-09T12:29:03.760Z,101767.03
2023-02-09T12:31:51.688Z,101770.28
2023-02-09T12:34:28.900Z,101777.69
2023-02-09T12:37:18.606Z,101773.56
2023-02-09T12:40:05.063Z,101773.81
2023-02-09T12:45:42.437Z,101776.19
2023-02-09T12:53:34.630Z,101755.59
2023-02-09T12:59:13.555Z,101759.94
2023-02-09T13:07:51.915Z,101766.75
2023-02-09T13:26:24.513Z,101779.19
2023-02-09T13:31:49.306Z,101777.47
2023-02-09T13:34:39.994Z,101784.31
2023-02-09T13:39:52.751Z,101783.63
2023-02-09T13:42:22.505Z,101784.38
2023-02-09T13:44:52.005Z,101779.19
2023-02-09T13:47:19.019Z,101772.91
2023-02-09T13:50:04.619Z,101772.66
2023-02-09T13:52:36.405Z,101776.97
2023-02-09T13:55:11.168Z,101769.06
2023-02-09T13:57:40.989Z,101761.94
2023-02-09T14:02:49.196Z,101775.03
2023-02-09T14:05:30.469Z,101780.97
2023-02-09T14:07:57.237Z,101771.53
2023-02-09T14:10:26.238Z,101774.00
2023-02-09T14:13:00.045Z,101776.38
2023-02-09T14:15:53.443Z,101770.34
2023-02-09T14:24:12.677Z,101789.84
2023-02-09T14:26:48.798Z,101778.69
2023-02-09T14:32:31.982Z,101772.50
2023-02-09T14:34:59.570Z,101774.13
2023-02-09T14:37:29.419Z,101769.75
2023-02-09T14:42:39.503Z,101779.56
2023-02-09T14:47:49.205Z,101783.56
2023-02-09T14:50:18.447Z,101785.91
2023-02-09T14:52:47.431Z,101785.78
2023-02-09T14:55:18.616Z,101783.06
2023-02-09T14:57:45.295Z,101787.22
2023-02-09T15:00:18.221Z,101785.34
2023-02-09T15:02:45.924Z,101786.88
2023-02-09T15:05:12.626Z,101787.66
2023-02-09T15:07:43.236Z,101786.69
2023-02-09T15:12:58.800Z,101808.91
2023-02-09T15:15:26.115Z,101805.25
2023-02-09T15:17:55.280Z,101800.88
2023-02-09T15:20:25.298Z,101806.69
2023-02-09T15:22:53.252Z,101800.63
2023-02-09T15:25:20.101Z,101805.72
2023-02-09T15:27:52.706Z,101803.00
2023-02-09T15:30:23.011Z,101802.84
2023-02-09T15:32:49.968Z,101817.03
2023-02-09T15:35:19.491Z,101825.78
2023-02-09T15:37:49.297Z,101829.13
2023-02-09T15:43:11.737Z,101827.94
2023-02-09T15:45:58.278Z,101824.44
2023-02-09T15:48:24.834Z,101833.81
2023-02-09T15:50:51.964Z,101835.47
2023-02-09T15:53:19.255Z,101845.72
2023-02-09T15:55:47.022Z,101849.13
2023-02-09T15:58:16.168Z,101842.97
2023-02-09T16:00:43.518Z,101846.25
2023-02-09T16:03:17.831Z,101842.72
2023-02-09T16:05:45.957Z,101844.25
2023-02-09T16:08:19.823Z,101848.38
2023-02-09T16:10:47.762Z,101857.59
2023-02-09T16:13:16.213Z,101861.75
2023-02-09T16:15:42.918Z,101869.22
2023-02-09T16:18:09.719Z,101879.38
2023-02-09T16:20:37.419Z,101867.19
2023-02-09T16:23:19.732Z,101881.56
2023-02-09T16:25:48.663Z,101873.63
2023-02-09T16:28:15.259Z,101874.25
2023-02-09T16:30:58.345Z,101873.84
2023-02-09T16:33:26.179Z,101877.03
2023-02-09T16:35:57.288Z,101886.28
2023-02-09T16:38:25.592Z,101891.91
2023-02-09T16:40:53.756Z,101894.25
2023-02-09T16:43:22.068Z,101895.78
2023-02-09T16:46:01.443Z,101888.63
2023-02-09T16:48:32.222Z,101889.16
2023-02-09T16:50:59.163Z,101897.47
2023-02-09T16:56:05.752Z,101916.69
2023-02-09T16:58:32.756Z,101919.78
2023-02-09T17:00:59.497Z,101920.41
2023-02-09T17:03:42.653Z,101922.47
2023-02-09T17:06:16.827Z,101926.59
2023-02-09T17:08:43.580Z,101929.66
2023-02-09T17:11:17.264Z,101934.53
2023-02-09T17:13:43.929Z,101927.34
2023-02-09T17:18:58.001Z,101936.25
2023-02-09T17:21:27.349Z,101948.19
2023-02-09T17:23:57.368Z,101951.75
2023-02-09T17:26:24.620Z,101961.72
2023-02-09T17:28:51.194Z,101958.78
2023-02-09T17:34:00.890Z,101959.06
2023-02-09T17:36:29.462Z,101953.59
2023-02-09T17:38:58.525Z,101963.59
2023-02-09T17:41:46.566Z,101959.78
2023-02-09T17:44:26.356Z,101961.38
2023-02-09T17:46:58.515Z,101952.56
2023-02-09T17:49:25.106Z,101948.88
2023-02-09T17:51:52.933Z,101961.50
2023-02-09T17:54:21.010Z,101965.56
2023-02-09T17:56:47.868Z,101959.41
2023-02-09T17:59:14.913Z,101973.78
2023-02-09T18:01:45.782Z,101973.66
2023-02-09T18:04:18.325Z,101978.63
2023-02-09T18:06:44.978Z,101980.22
2023-02-09T18:09:13.167Z,101972.41
2023-02-09T18:14:16.501Z,101982.56
2023-02-09T18:16:43.725Z,101980.59
2023-02-09T18:19:11.819Z,101978.75
2023-02-09T18:21:39.731Z,101972.69
2023-02-09T18:24:06.649Z,101970.84
2023-02-09T18:26:33.785Z,101981.75
2023-02-09T18:29:00.329Z,101981.69
2023-02-09T18:31:26.909Z,101989.22
2023-02-09T18:33:54.171Z,101995.94
2023-02-09T18:36:20.901Z,101996.75
2023-02-09T18:38:48.217Z,101993.06
2023-02-09T18:41:15.220Z,102005.72
2023-02-09T18:43:41.956Z,102008.94
2023-02-09T18:46:10.686Z,102007.00
2023-02-09T18:48:37.302Z,102006.81
2023-02-09T18:51:07.374Z,102011.78
2023-02-09T18:53:34.120Z,102010.75
2023-02-09T18:56:00.792Z,102019.94
2023-02-09T18:58:27.353Z,102023.22
2023-02-09T19:00:54.297Z,102019.72
2023-02-09T19:03:21.359Z,102024.75
2023-02-09T19:05:48.205Z,102031.47
2023-02-09T19:08:15.495Z,102031.28
2023-02-09T19:10:43.133Z,102038.03
2023-02-09T19:13:09.799Z,102040.44
2023-02-09T19:15:39.034Z,102035.22
2023-02-09T19:18:05.892Z,102037.50
2023-02-09T19:20:34.261Z,102034.81
2023-02-09T19:23:02.419Z,102037.19
2023-02-09T19:25:30.469Z,102037.00
2023-02-09T19:27:57.093Z,102040.28
2023-02-09T19:30:25.123Z,102035.06
2023-02-09T19:32:53.710Z,102034.09
2023-02-09T19:35:23.019Z,102042.59
2023-02-09T19:37:52.644Z,102033.13
2023-02-09T19:40:27.487Z,102038.16
2023-02-09T19:42:56.523Z,102033.84
2023-02-09T19:45:23.411Z,102039.66
2023-02-09T19:47:50.053Z,102045.50
2023-02-09T19:50:17.461Z,102041.97
2023-02-09T19:52:47.454Z,102035.97
2023-02-09T19:55:14.418Z,102044.47
2023-02-09T19:57:42.480Z,102046.94
2023-02-09T20:00:11.620Z,102054.63
2023-02-09T20:02:39.377Z,102049.41
2023-02-09T20:05:06.338Z,102043.31
2023-02-09T20:07:32.882Z,102045.00
2023-02-09T20:09:59.717Z,102053.56
2023-02-09T20:12:26.369Z,102067.97
2023-02-09T20:14:54.526Z,102057.72
2023-02-09T20:17:22.102Z,102067.06
2023-02-09T20:19:48.636Z,102069.53
2023-02-09T20:22:15.306Z,102072.91
2023-02-09T20:24:42.984Z,102069.53
2023-02-09T20:27:09.843Z,102072.91
2023-02-09T20:29:36.390Z,102067.78
2023-02-09T20:32:03.025Z,102062.66
2023-02-09T20:34:29.692Z,102062.66
2023-02-09T20:36:57.587Z,102061.78
2023-02-09T20:39:24.600Z,102066.03
2023-02-09T20:42:16.044Z,102072.91
2023-02-09T20:45:03.423Z,102073.44
2023-02-09T20:47:30.225Z,102068.06
2023-02-09T20:50:00.070Z,102072.19
2023-02-09T20:52:28.771Z,102077.31
2023-02-09T20:54:56.156Z,102077.13
2023-02-09T20:57:29.257Z,102079.34
2023-02-09T20:59:58.603Z,102081.72
2023-02-09T21:02:26.245Z,102079.78
2023-02-09T21:04:56.083Z,102074.47
2023-02-09T21:07:22.882Z,102079.41
2023-02-09T21:09:49.440Z,102079.22
2023-02-09T21:12:16.133Z,102076.56
2023-02-09T21:14:45.197Z,102076.41
2023-02-09T21:17:12.641Z,102081.44
2023-02-09T21:19:40.200Z,102082.13
2023-02-09T21:22:06.796Z,102081.06
2023-02-09T21:24:33.373Z,102083.59
2023-02-09T21:27:00.988Z,102080.09
2023-02-09T21:29:29.425Z,102075.53
2023-02-09T21:32:00.172Z,102084.81
2023-02-09T21:34:26.957Z,102087.28
2023-02-09T21:36:53.509Z,102091.34
2023-02-09T21:39:20.056Z,102088.59
2023-02-09T21:42:06.578Z,102091.78
2023-02-09T21:44:35.977Z,102093.34
2023-02-09T21:47:02.560Z,102098.25
2023-02-09T21:49:31.731Z,102097.28
2023-02-09T21:51:58.812Z,102097.09
2023-02-09T21:54:26.555Z,102090.03
2023-02-09T21:56:54.529Z,102094.00
2023-02-09T21:59:21.147Z,102085.22
2023-02-09T22:01:47.749Z,102092.63
2023-02-09T22:04:14.324Z,102092.22
2023-02-09T22:06:41.781Z,102092.22
2023-02-09T22:09:08.529Z,102089.66
2023-02-09T22:11:35.205Z,102088.66
2023-02-09T22:14:02.058Z,102088.50
2023-02-09T22:16:29.589Z,102090.06
2023-02-09T22:18:56.682Z,102082.09
2023-02-09T22:21:23.252Z,102082.78
2023-02-09T22:23:52.755Z,102081.72
2023-02-09T22:26:19.400Z,102081.53
2023-02-09T22:28:46.859Z,102085.66
2023-02-09T22:31:16.358Z,102087.13
2023-02-09T22:33:43.315Z,102081.81
2023-02-09T22:36:14.302Z,102091.84
2023-02-09T22:38:41.538Z,102091.75
2023-02-09T22:41:21.399Z,102091.69
2023-02-09T22:46:29.203Z,102092.81
2023-02-09T22:48:58.976Z,102091.75
2023-02-09T22:51:28.386Z,102089.09
2023-02-09T22:53:56.290Z,102090.69
2023-02-09T22:56:22.893Z,102085.56
2023-02-09T22:58:49.747Z,102082.03
2023-02-09T23:01:17.774Z,102088.69
2023-02-09T23:03:44.470Z,102088.63
2023-02-09T23:06:15.353Z,102086.06
2023-02-09T23:08:41.991Z,102087.63
2023-02-09T23:11:11.838Z,102100.28
2023-02-09T23:13:38.871Z,102107.00
2023-02-09T23:18:48.244Z,102111.69
2023-02-09T23:21:15.895Z,102107.06
2023-02-09T23:23:42.657Z,102113.66
2023-02-09T23:26:09.277Z,102103.97
2023-02-09T23:28:35.879Z,102099.66
2023-02-09T23:31:07.599Z,102096.91
2023-02-09T23:33:36.525Z,102104.50
2023-02-09T23:36:06.680Z,102109.50
2023-02-09T23:38:33.626Z,102112.06
2023-02-09T23:41:00.254Z,102119.63
2023-02-09T23:43:26.898Z,102124.50
2023-02-09T23:45:53.912Z,102130.31
2023-02-09T23:48:20.582Z,102128.34
2023-02-09T23:50:47.231Z,102135.78
2023-02-09T23:53:14.699Z,102147.56
2023-02-09T23:55:41.363Z,102142.25
2023-02-09T23:58:07.890Z,102142.81
